Time;durP1;ratioP1;P1;durP2;ratioP2;P2;SDS_P1;SDS_P2;PMS_P1;PMS_P2;Temp;Humidity;BMP_temperature;BMP_pressure;BME280_temperature;BME280_humidity;BME280_pressure;Samples;Min_cycle;Max_cycle;Signal;HPM_P1;HPM_P2
2023/04/01 00:00:46;;;;;;;;;0.00;0.00;;;;;13.32;64.75;99877.75;6249777;22;45339;-64
2023/04/01 00:03:12;;;;;;;;;1.50;0.00;;;;;13.33;64.71;99884.84;6277876;22;45403;-64
2023/04/01 00:05:37;;;;;;;;;1.75;0.75;;;;;13.36;64.87;99892.69;6277627;22;45568;-64
2023/04/01 00:08:03;;;;;;;;;0.75;0.75;;;;;13.12;64.91;99866.31;6274475;22;46979;-64
2023/04/01 00:10:28;;;;;;;;;1.00;0.00;;;;;13.32;65.44;99888.50;6249597;22;45335;-64
2023/04/01 00:12:53;;;;;;;;;1.00;0.00;;;;;13.30;65.48;99893.03;6249386;22;45323;-64
2023/04/01 00:15:19;;;;;;;;;1.25;0.00;;;;;13.26;65.69;99881.59;6275292;22;45384;-64
2023/04/01 00:17:44;;;;;;;;;0.00;0.00;;;;;13.23;65.84;99895.22;6249513;22;46358;-64
2023/04/01 00:20:10;;;;;;;;;0.00;0.00;;;;;13.10;65.83;99873.59;6249261;22;45268;-64
2023/04/01 00:22:36;;;;;;;;;0.50;0.00;;;;;13.22;65.80;99904.19;6275944;22;45207;-64
2023/04/01 00:25:02;;;;;;;;;1.50;0.00;;;;;13.21;65.55;99896.22;6252782;22;45430;-64
2023/04/01 00:27:27;;;;;;;;;0.00;0.00;;;;;12.93;65.61;99838.84;6280091;22;45248;-64
2023/04/01 00:29:52;;;;;;;;;1.00;0.00;;;;;13.19;65.57;99893.63;6280736;22;45252;-64
2023/04/01 00:32:18;;;;;;;;;0.75;0.75;;;;;13.24;65.71;99898.75;6280908;22;45434;-64
2023/04/01 00:34:44;;;;;;;;;0.00;0.00;;;;;13.24;65.71;99899.59;6280579;22;45404;-64
2023/04/01 00:37:09;;;;;;;;;0.00;0.00;;;;;13.02;66.06;99865.13;6252447;22;45936;-64
2023/04/01 00:39:36;;;;;;;;;0.00;0.00;;;;;13.18;65.62;99889.25;6280421;22;45287;-64
2023/04/01 00:42:03;;;;;;;;;0.00;0.00;;;;;13.16;65.94;99881.28;6280920;22;45406;-64
2023/04/01 00:44:34;;;;;;;;;0.75;0.00;;;;;13.06;65.56;99869.34;6280640;22;45383;-64
2023/04/01 00:47:00;;;;;;;;;1.00;0.00;;;;;13.19;65.95;99896.31;6252541;22;47898;-64
2023/04/01 00:49:39;;;;;;;;;1.00;0.00;;;;;13.05;65.78;99861.44;6252050;22;45414;-64
2023/04/01 00:52:08;;;;;;;;;0.00;0.00;;;;;13.28;66.29;99911.91;6280667;22;45349;-64
2023/04/01 00:54:35;;;;;;;;;0.00;0.00;;;;;13.22;65.97;99888.13;6252650;22;45591;-64
2023/04/01 00:57:09;;;;;;;;;0.00;0.00;;;;;13.15;66.04;99882.25;6252283;22;47117;-64
2023/04/01 00:59:47;;;;;;;;;0.00;0.00;;;;;13.29;65.89;99897.53;6280402;22;45629;-64
2023/04/01 01:02:14;;;;;;;;;1.25;1.00;;;;;13.27;66.13;99891.38;6280399;22;45338;-64
2023/04/01 01:04:40;;;;;;;;;0.50;0.00;;;;;13.20;66.01;99878.41;6280726;22;45266;-64
2023/04/01 01:07:43;;;;;;;;;0.00;0.00;;;;;13.27;66.35;99898.56;6252233;22;47622;-64
2023/04/01 01:10:18;;;;;;;;;0.00;0.00;;;;;13.25;66.29;99897.81;6252679;22;45941;-64
2023/04/01 01:12:51;;;;;;;;;0.00;0.00;;;;;13.23;66.50;99891.66;6280176;22;45316;-64
2023/04/01 01:15:23;;;;;;;;;1.00;0.25;;;;;13.23;66.49;99897.88;6280530;22;45332;-64
2023/04/01 01:17:54;;;;;;;;;3.50;0.00;;;;;13.23;66.41;99899.69;6278143;22;47143;-64
2023/04/01 01:20:29;;;;;;;;;0.75;0.00;;;;;13.11;67.08;99875.34;6279821;22;45264;-64
2023/04/01 01:23:04;;;;;;;;;0.50;0.50;;;;;13.19;66.88;99895.47;6280277;22;45683;-64
2023/04/01 01:25:52;;;;;;;;;1.00;0.00;;;;;13.10;66.89;99881.63;6280353;22;45262;-64
2023/04/01 01:28:44;;;;;;;;;0.00;0.00;;;;;13.16;66.54;99892.03;6279967;22;45576;-64
2023/04/01 01:31:21;;;;;;;;;1.00;0.00;;;;;13.13;66.86;99904.69;6252236;22;45267;-64
2023/04/01 01:33:53;;;;;;;;;0.00;0.00;;;;;13.12;66.90;99898.47;6279994;22;45216;-64
2023/04/01 01:36:21;;;;;;;;;1.00;1.00;;;;;13.15;66.75;99892.94;6277929;22;45322;-64
2023/04/01 01:38:49;;;;;;;;;0.00;0.00;;;;;13.02;66.58;99869.63;6278181;22;45582;-64
2023/04/01 01:41:17;;;;;;;;;0.00;0.00;;;;;13.11;66.87;99890.53;6250452;22;45738;-64
2023/04/01 01:43:47;;;;;;;;;2.00;0.00;;;;;13.04;67.04;99884.66;6278167;22;45240;-64
2023/04/01 01:46:17;;;;;;;;;1.50;0.00;;;;;13.20;66.76;99911.47;6278294;22;45364;-64
2023/04/01 01:48:44;;;;;;;;;0.00;0.00;;;;;12.97;67.08;99870.72;6278106;22;45792;-64
2023/04/01 01:51:10;;;;;;;;;0.00;0.00;;;;;13.14;67.73;99898.41;6277812;22;45263;-64
2023/04/01 01:53:36;;;;;;;;;1.25;0.00;;;;;13.10;67.29;99904.91;6278103;22;45485;-64
2023/04/01 01:56:02;;;;;;;;;0.00;0.00;;;;;13.15;67.38;99926.94;6250556;22;45440;-64
2023/04/01 01:58:35;;;;;;;;;0.00;0.00;;;;;13.03;67.41;99898.13;6278025;22;46042;-64
2023/04/01 02:01:04;;;;;;;;;0.00;0.00;;;;;13.14;67.58;99915.31;6277659;22;45267;-64
2023/04/01 02:03:34;;;;;;;;;1.00;0.00;;;;;13.08;67.47;99909.44;6278211;22;45284;-64
2023/04/01 02:06:01;;;;;;;;;1.00;0.00;;;;;13.10;67.75;99924.50;6278246;22;45315;-64
2023/04/01 02:08:57;;;;;;;;;0.50;0.00;;;;;13.15;67.65;99918.91;6277118;22;45251;-64
2023/04/01 02:11:29;;;;;;;;;0.00;0.00;;;;;13.08;67.46;99907.66;6276552;22;45244;-64
2023/04/01 02:14:02;;;;;;;;;0.00;0.00;;;;;12.85;67.39;99870.59;6250464;22;45299;-64
2023/04/01 02:16:34;;;;;;;;;0.00;0.00;;;;;13.03;67.95;99912.41;6275969;22;45823;-64
2023/04/01 02:19:07;;;;;;;;;0.00;0.00;;;;;13.07;67.47;99899.72;6249880;22;48466;-64
2023/04/01 02:21:34;;;;;;;;;0.00;0.00;;;;;13.03;67.62;99916.88;6277995;22;45434;-64
2023/04/01 02:24:05;;;;;;;;;2.00;0.00;;;;;13.07;67.50;99922.00;6249812;22;45351;-64
2023/04/01 02:26:31;;;;;;;;;1.00;0.00;;;;;12.96;67.55;99911.88;6278011;22;45264;-64
2023/04/01 02:28:59;;;;;;;;;0.75;0.75;;;;;12.79;67.28;99883.34;6277871;22;45386;-64
2023/04/01 02:31:25;;;;;;;;;0.00;0.00;;;;;13.04;67.16;99932.03;6250202;22;45276;-64
2023/04/01 02:33:51;;;;;;;;;1.00;0.00;;;;;12.98;67.30;99914.47;6278179;22;45391;-64
2023/04/01 02:36:17;;;;;;;;;0.00;0.00;;;;;12.89;67.13;99901.59;6249810;22;45398;-64
2023/04/01 02:38:45;;;;;;;;;0.00;0.00;;;;;12.93;66.83;99922.78;6277361;22;47298;-64
2023/04/01 02:41:11;;;;;;;;;1.50;1.00;;;;;12.79;67.00;99888.69;6250002;22;45319;-64
2023/04/01 02:43:37;;;;;;;;;2.00;0.00;;;;;12.93;67.01;99917.41;6278225;22;45228;-65
2023/04/01 02:46:03;;;;;;;;;0.00;0.00;;;;;13.01;66.63;99941.06;6275707;22;45374;-64
2023/04/01 02:48:29;;;;;;;;;0.00;0.00;;;;;13.04;66.72;99930.19;6249683;22;47085;-64
2023/04/01 02:50:54;;;;;;;;;2.00;0.00;;;;;13.02;66.74;99921.38;6249920;22;45457;-64
2023/04/01 02:53:20;;;;;;;;;1.25;0.00;;;;;13.05;66.29;99934.63;6278193;22;45294;-64
2023/04/01 02:55:45;;;;;;;;;0.00;0.00;;;;;13.05;66.38;99934.63;6278135;22;45394;-64
2023/04/01 02:58:11;;;;;;;;;0.50;0.00;;;;;12.97;66.36;99924.31;6277680;22;45310;-64
2023/04/01 03:00:37;;;;;;;;;3.00;0.00;;;;;13.04;66.39;99940.06;6278004;22;45236;-64
2023/04/01 03:03:03;;;;;;;;;0.00;0.00;;;;;13.06;65.92;99938.16;6250209;22;45331;-64
2023/04/01 03:05:29;;;;;;;;;0.00;0.00;;;;;13.00;65.95;99935.81;6278057;22;45388;-64
2023/04/01 03:07:54;;;;;;;;;0.00;0.00;;;;;13.01;66.17;99937.53;6249719;22;45945;-64
2023/04/01 03:10:20;;;;;;;;;1.00;0.00;;;;;12.89;66.06;99933.72;6277866;22;45228;-64
2023/04/01 03:12:45;;;;;;;;;1.00;0.00;;;;;13.05;65.83;99949.84;6277764;22;45269;-64
2023/04/01 03:15:14;;;;;;;;;0.75;0.00;;;;;12.87;65.98;99931.13;6250119;22;45693;-64
2023/04/01 03:17:40;;;;;;;;;0.00;0.00;;;;;12.98;65.67;99950.16;6277732;22;45998;-64
2023/04/01 03:20:08;;;;;;;;;0.00;0.00;;;;;12.93;65.90;99946.88;6277181;22;45413;-64
2023/04/01 03:22:34;;;;;;;;;0.50;0.50;;;;;12.84;65.92;99936.66;6249859;22;45625;-64
2023/04/01 03:24:59;;;;;;;;;2.00;0.00;;;;;12.92;65.96;99946.97;6277834;22;45427;-64
2023/04/01 03:27:24;;;;;;;;;0.00;0.00;;;;;12.94;66.17;99948.59;6277335;22;45257;-64
2023/04/01 03:29:50;;;;;;;;;0.00;0.00;;;;;13.02;66.16;99969.59;6277471;22;45247;-64
2023/04/01 03:32:15;;;;;;;;;0.00;0.00;;;;;12.95;66.08;99953.00;6278013;22;45279;-64
2023/04/01 03:34:40;;;;;;;;;2.00;0.00;;;;;12.98;66.16;99952.00;6250081;22;45248;-64
2023/04/01 03:37:06;;;;;;;;;1.00;0.75;;;;;12.78;66.49;99950.41;6277140;22;46666;-64
2023/04/01 03:39:31;;;;;;;;;0.50;0.25;;;;;12.88;66.45;99951.63;6277676;22;45186;-64
2023/04/01 03:41:56;;;;;;;;;0.50;0.00;;;;;12.95;67.02;99976.25;6277788;22;45315;-64
2023/04/01 03:44:23;;;;;;;;;1.00;0.00;;;;;12.91;66.64;99963.97;6275798;22;45442;-64
2023/04/01 03:46:48;;;;;;;;;0.00;0.00;;;;;12.86;66.84;99958.00;6277614;22;45444;-64
2023/04/01 03:49:14;;;;;;;;;1.25;0.00;;;;;12.96;66.61;99970.81;6276964;22;45225;-64
2023/04/01 03:51:41;;;;;;;;;1.00;1.00;;;;;12.97;66.47;99961.81;6277764;22;45401;-64
2023/04/01 03:54:07;;;;;;;;;0.00;0.00;;;;;12.88;66.40;99962.34;6249712;22;45411;-64
2023/04/01 03:56:32;;;;;;;;;0.50;0.00;;;;;12.98;66.12;99963.56;6249752;22;47124;-64
2023/04/01 03:58:58;;;;;;;;;1.00;1.00;;;;;12.97;66.03;99969.00;6274635;22;45742;-64
2023/04/01 04:01:23;;;;;;;;;0.50;0.50;;;;;12.79;65.64;99946.75;6277664;22;45292;-64
2023/04/01 04:03:50;;;;;;;;;1.75;0.00;;;;;12.82;65.67;99940.38;6249414;22;45334;-64
2023/04/01 04:06:17;;;;;;;;;0.50;0.00;;;;;12.87;65.79;99957.91;6277297;22;46302;-64
2023/04/01 04:08:43;;;;;;;;;3.00;0.00;;;;;12.76;65.87;99934.41;6277135;22;45246;-64
2023/04/01 04:11:08;;;;;;;;;2.00;0.00;;;;;12.86;65.78;99944.59;6250026;22;45613;-64
2023/04/01 04:13:35;;;;;;;;;0.00;0.00;;;;;12.80;65.72;99948.50;6277120;22;45194;-64
2023/04/01 04:16:01;;;;;;;;;0.00;0.00;;;;;12.78;65.73;99942.38;6277441;22;45384;-64
2023/04/01 04:18:27;;;;;;;;;0.00;0.00;;;;;12.98;65.34;99979.63;6277142;22;45626;-64
2023/04/01 04:20:52;;;;;;;;;1.00;0.00;;;;;13.04;65.61;99982.94;6277362;22;45362;-64
2023/04/01 04:23:18;;;;;;;;;0.50;0.00;;;;;12.81;66.13;99962.75;6277079;22;45386;-64
2023/04/01 04:26:06;;;;;;;;;1.00;0.00;;;;;12.79;65.72;99952.97;6277407;22;46307;-64
2023/04/01 04:28:32;;;;;;;;;0.00;0.00;;;;;12.82;65.42;99959.13;6276849;22;45267;-64
2023/04/01 04:30:58;;;;;;;;;0.75;0.00;;;;;12.92;65.48;99979.09;6277567;22;45246;-64
2023/04/01 04:33:24;;;;;;;;;0.50;0.00;;;;;13.06;65.22;99989.06;6249600;22;45494;-64
2023/04/01 04:35:50;;;;;;;;;0.00;0.00;;;;;12.93;65.61;99968.31;6277284;22;45602;-64
2023/04/01 04:38:16;;;;;;;;;2.00;0.00;;;;;12.82;65.30;99959.13;6276759;22;45254;-64
2023/04/01 04:40:42;;;;;;;;;0.00;0.00;;;;;12.91;65.39;99978.25;6277504;22;45449;-64
2023/04/01 04:43:10;;;;;;;;;1.25;0.25;;;;;12.96;65.36;99991.38;6277178;22;45336;-64
2023/04/01 04:45:35;;;;;;;;;2.00;0.00;;;;;12.84;65.15;99984.00;6277074;22;45272;-64
2023/04/01 04:48:01;;;;;;;;;1.75;0.00;;;;;12.79;65.37;99970.84;6248751;22;46528;-64
2023/04/01 04:50:26;;;;;;;;;0.25;0.00;;;;;12.77;65.34;99973.63;6249405;22;45340;-64
2023/04/01 04:52:51;;;;;;;;;1.25;0.00;;;;;12.76;65.39;99965.66;6276879;22;45252;-64
2023/04/01 04:55:17;;;;;;;;;0.50;0.00;;;;;12.99;65.22;99999.25;6276960;22;45431;-64
2023/04/01 04:57:43;;;;;;;;;0.25;0.00;;;;;13.04;65.05;100013.25;6277015;22;45514;-64
2023/04/01 05:00:09;;;;;;;;;0.00;0.00;;;;;12.98;65.00;100003.75;6277217;22;45403;-64
2023/04/01 05:02:35;;;;;;;;;1.75;0.50;;;;;12.74;64.67;99968.41;6276744;22;45667;-64
2023/04/01 05:05:00;;;;;;;;;0.00;0.00;;;;;12.66;64.73;99953.72;6248874;22;48008;-64
2023/04/01 05:07:26;;;;;;;;;1.50;0.50;;;;;12.70;64.80;99964.19;6276537;22;45422;-64
2023/04/01 05:09:51;;;;;;;;;1.75;1.00;;;;;12.86;64.71;99998.16;6250444;22;45404;-64
2023/04/01 05:12:17;;;;;;;;;0.00;0.00;;;;;12.73;64.64;99981.88;6250493;22;45552;-64
2023/04/01 05:14:42;;;;;;;;;1.50;0.00;;;;;12.77;64.39;99975.44;6278397;22;45403;-64
2023/04/01 05:17:11;;;;;;;;;0.00;0.00;;;;;12.79;64.67;99992.28;6278059;22;45308;-64
2023/04/01 05:19:37;;;;;;;;;4.00;0.00;;;;;12.80;64.83;100002.06;6278275;22;45330;-64
2023/04/01 05:22:03;;;;;;;;;0.75;0.00;;;;;12.63;64.57;99965.47;6277941;22;45276;-64
2023/04/01 05:24:28;;;;;;;;;0.00;0.00;;;;;12.77;64.48;99989.69;6278309;22;45393;-64
2023/04/01 05:26:54;;;;;;;;;0.25;0.00;;;;;12.83;64.62;100004.56;6278074;22;45215;-64
2023/04/01 05:29:19;;;;;;;;;0.00;0.00;;;;;12.84;64.15;100000.06;6278545;22;45324;-64
2023/04/01 05:31:44;;;;;;;;;0.00;0.00;;;;;12.78;64.48;99996.78;6278284;22;45469;-64
2023/04/01 05:34:10;;;;;;;;;0.50;0.00;;;;;12.77;64.83;100003.06;6278059;22;45526;-64
2023/04/01 05:36:36;;;;;;;;;1.25;0.00;;;;;12.86;64.58;100000.84;6250358;22;45445;-64
2023/04/01 05:39:01;;;;;;;;;1.00;0.00;;;;;12.55;64.96;99965.00;6278054;22;45372;-64
2023/04/01 05:41:26;;;;;;;;;0.00;0.00;;;;;12.81;64.42;100017.16;6276124;22;45356;-64
2023/04/01 05:43:52;;;;;;;;;0.00;0.00;;;;;12.84;64.36;100019.69;6277832;22;45300;-64
2023/04/01 05:46:17;;;;;;;;;0.00;0.00;;;;;12.75;64.40;100006.78;6277979;22;45284;-64
2023/04/01 05:48:42;;;;;;;;;1.25;0.00;;;;;12.84;64.61;100018.81;6278254;22;45256;-64
2023/04/01 05:51:15;;;;;;;;;0.00;0.00;;;;;12.83;64.34;100023.31;6278041;22;45487;-64
2023/04/01 05:53:41;;;;;;;;;0.00;0.00;;;;;12.78;64.47;100014.69;6275615;22;47187;-64
2023/04/01 05:56:09;;;;;;;;;1.00;0.00;;;;;13.07;64.48;100057.78;6277847;22;45386;-64
2023/04/01 05:58:34;;;;;;;;;2.25;0.00;;;;;12.82;64.44;100026.94;6278016;22;45347;-64
2023/04/01 06:01:06;;;;;;;;;0.00;0.00;;;;;13.07;64.31;100055.97;6278038;22;45262;-64
2023/04/01 06:03:32;;;;;;;;;0.75;0.00;;;;;13.04;64.26;100065.97;6278174;22;45355;-64
2023/04/01 06:05:57;;;;;;;;;1.00;0.00;;;;;12.86;64.11;100044.56;6278131;22;45321;-64
2023/04/01 06:08:24;;;;;;;;;0.75;0.00;;;;;12.86;64.24;100044.56;6277868;22;45390;-64
2023/04/01 06:11:10;;;;;;;;;0.00;0.00;;;;;12.77;63.98;100029.84;6278440;22;45411;-66
2023/04/01 06:13:50;;;;;;;;;3.50;3.50;;;;;13.03;64.10;100081.19;6249568;22;48167;-64
2023/04/01 06:16:39;;;;;;;;;0.00;0.00;;;;;13.00;63.81;100078.69;6277956;22;45654;-64
2023/04/01 06:19:17;;;;;;;;;0.00;0.00;;;;;13.00;63.99;100081.34;6250177;22;45367;-64
2023/04/01 06:22:08;;;;;;;;;0.50;0.00;;;;;12.93;64.12;100075.47;6277581;22;45254;-64
2023/04/01 06:24:36;;;;;;;;;0.00;0.00;;;;;12.97;63.95;100086.88;6277967;22;46449;-64
2023/04/01 06:27:31;;;;;;;;;0.00;0.00;;;;;12.64;64.02;100043.97;6277466;22;45264;-64
2023/04/01 06:30:24;;;;;;;;;0.00;0.00;;;;;12.96;63.96;100095.84;6277997;22;45281;-64
2023/04/01 06:33:05;;;;;;;;;0.25;0.00;;;;;12.74;63.51;100061.28;6250177;22;45580;-64
2023/04/01 06:35:49;;;;;;;;;0.00;0.00;;;;;13.06;63.37;100096.22;6277886;22;45440;-64
2023/04/01 06:38:26;;;;;;;;;3.00;0.00;;;;;12.91;63.28;100073.78;6277386;22;45542;-64
2023/04/01 06:41:26;;;;;;;;;1.00;1.00;;;;;13.02;63.10;100082.13;6278016;22;45790;-64
2023/04/01 06:44:25;;;;;;;;;1.00;0.00;;;;;13.10;62.92;100097.81;6277713;22;45248;-64
2023/04/01 06:46:59;;;;;;;;;0.00;0.00;;;;;12.97;62.89;100089.56;6277497;22;46388;-64
2023/04/01 06:49:41;;;;;;;;;0.00;0.00;;;;;13.16;63.14;100110.88;6244339;22;45420;-64
2023/04/01 06:52:44;;;;;;;;;0.00;0.00;;;;;13.16;62.72;100111.75;6247023;22;45319;-64
2023/04/01 06:55:40;;;;;;;;;1.75;0.00;;;;;12.93;63.08;100075.47;6247313;22;45249;-64
2023/04/01 06:58:16;;;;;;;;;0.00;0.00;;;;;12.91;62.86;100073.78;6245826;22;45267;-64
2023/04/01 07:00:46;;;;;;;;;1.00;0.00;;;;;12.90;62.89;100066.72;6246854;22;45235;-64
2023/04/01 07:03:32;;;;;;;;;0.00;0.00;;;;;13.15;62.97;100103.78;6246551;22;45335;-64
2023/04/01 07:06:06;;;;;;;;;0.25;0.00;;;;;13.19;62.91;100118.75;6246946;22;45331;-64
2023/04/01 07:08:38;;;;;;;;;0.00;0.00;;;;;13.22;62.75;100118.59;6246256;22;45485;-64
2023/04/01 07:11:11;;;;;;;;;0.00;0.00;;;;;12.89;62.50;100065.84;6246889;22;45201;-64
2023/04/01 07:13:40;;;;;;;;;0.00;0.00;;;;;13.19;62.62;100121.44;6244734;22;45295;-64
2023/04/01 07:16:16;;;;;;;;;1.00;0.00;;;;;13.21;62.60;100124.03;6246893;22;45348;-64
2023/04/01 07:19:01;;;;;;;;;0.00;0.00;;;;;12.95;62.54;100083.41;6246728;22;46140;-64
2023/04/01 07:21:43;;;;;;;;;0.50;0.00;;;;;12.83;62.32;100068.84;6246537;22;45424;-64
2023/04/01 07:24:19;;;;;;;;;0.50;0.00;;;;;12.88;62.27;100080.19;6246658;22;45384;-64
2023/04/01 07:26:44;;;;;;;;;0.00;0.00;;;;;12.94;62.36;100084.34;6244694;22;45492;-64
2023/04/01 07:29:12;;;;;;;;;0.00;0.00;;;;;12.97;62.21;100085.06;6246548;22;45509;-64
2023/04/01 07:31:55;;;;;;;;;1.50;0.00;;;;;12.96;61.88;100085.13;6246016;22;45698;-64
2023/04/01 07:34:51;;;;;;;;;0.00;0.00;;;;;13.30;62.13;100134.28;6246436;22;45518;-64
2023/04/01 07:37:39;;;;;;;;;1.00;0.00;;;;;13.31;62.00;100142.22;6246212;22;45484;-64
2023/04/01 07:40:22;;;;;;;;;2.00;0.00;;;;;13.12;61.85;100098.59;6244874;22;48300;-64
2023/04/01 07:43:04;;;;;;;;;0.00;0.00;;;;;13.09;61.46;100110.31;6246699;22;45374;-64
2023/04/01 07:45:33;;;;;;;;;1.00;0.00;;;;;13.33;61.62;100144.84;6244761;22;45683;-64
2023/04/01 07:48:27;;;;;;;;;0.00;0.00;;;;;13.33;61.60;100135.00;6244358;22;45385;-64
2023/04/01 07:51:02;;;;;;;;;0.25;0.25;;;;;13.18;61.61;100109.00;6246783;22;46690;-64
2023/04/01 07:53:35;;;;;;;;;0.00;0.00;;;;;13.14;61.78;100102.06;6246161;22;45354;-64
2023/04/01 07:56:23;;;;;;;;;0.00;0.00;;;;;13.19;61.66;100116.06;6246777;22;45651;-64
2023/04/01 07:59:00;;;;;;;;;1.00;0.00;;;;;13.39;61.29;100159.75;6246402;22;45465;-64
2023/04/01 08:01:43;;;;;;;;;1.00;1.00;;;;;13.37;61.11;100156.28;6246518;22;45413;-64
2023/04/01 08:04:42;;;;;;;;;0.75;0.00;;;;;13.37;61.10;100153.59;6246719;22;45524;-64
2023/04/01 08:07:25;;;;;;;;;0.00;0.00;;;;;13.13;61.35;100117.28;6246552;22;45687;-64
2023/04/01 08:10:08;;;;;;;;;0.75;0.00;;;;;13.22;60.57;100125.78;6245836;22;45406;-64
2023/04/01 08:12:52;;;;;;;;;1.50;0.25;;;;;13.40;60.90;100157.00;6245524;22;45590;-64
2023/04/01 08:15:27;;;;;;;;;0.00;0.00;;;;;13.42;61.05;100181.03;6246594;22;45322;-64
2023/04/01 08:17:55;;;;;;;;;2.00;0.00;;;;;13.46;60.89;100158.47;6243754;22;45447;-64
2023/04/01 08:20:33;;;;;;;;;1.00;0.00;;;;;13.51;60.76;100170.69;6246340;22;45412;-64
2023/04/01 08:23:13;;;;;;;;;1.00;0.00;;;;;13.56;61.02;100162.38;6246258;22;46136;-64
2023/04/01 08:25:51;;;;;;;;;0.00;0.00;;;;;13.35;60.95;100126.88;6246394;22;45535;-64
2023/04/01 08:28:32;;;;;;;;;0.00;0.00;;;;;13.64;60.65;100178.06;6245967;22;45360;-64
2023/04/01 08:31:06;;;;;;;;;0.00;0.00;;;;;13.62;59.87;100172.78;6246397;22;45362;-64
2023/04/01 08:33:33;;;;;;;;;0.75;0.00;;;;;13.62;60.01;100175.47;6246377;22;46141;-64
2023/04/01 08:36:18;;;;;;;;;0.00;0.00;;;;;13.41;60.15;100149.81;6246322;22;45631;-65
2023/04/01 08:38:59;;;;;;;;;0.00;0.00;;;;;13.45;59.73;100132.63;6246452;22;45413;-64
2023/04/01 08:41:46;;;;;;;;;0.00;0.00;;;;;13.74;59.51;100181.13;6246043;22;45361;-64
2023/04/01 08:44:41;;;;;;;;;0.00;0.00;;;;;13.74;59.23;100175.75;6244247;22;46855;-64
2023/04/01 08:47:19;;;;;;;;;0.00;0.00;;;;;13.46;59.47;100135.19;6247172;22;45451;-64
2023/04/01 08:49:56;;;;;;;;;0.00;0.00;;;;;13.79;59.52;100179.03;6247992;22;45407;-64
2023/04/01 08:52:35;;;;;;;;;0.00;0.00;;;;;13.56;59.25;100140.91;6247144;22;45287;-64
2023/04/01 08:55:25;;;;;;;;;0.00;0.00;;;;;13.84;58.90;100177.84;6247628;22;45436;-64
2023/04/01 08:58:02;;;;;;;;;0.00;0.00;;;;;13.59;58.91;100145.28;6247037;22;45248;-64
2023/04/01 09:00:38;;;;;;;;;0.00;0.00;;;;;13.86;58.98;100186.66;6247510;22;45316;-64
2023/04/01 09:03:15;;;;;;;;;0.75;0.00;;;;;13.87;58.92;100188.41;6247639;22;45213;-64
2023/04/01 09:06:18;;;;;;;;;0.00;0.00;;;;;13.89;58.91;100202.59;6247504;22;46280;-64
2023/04/01 09:09:02;;;;;;;;;0.25;0.00;;;;;13.88;58.86;100195.50;6247270;22;45646;-64
2023/04/01 09:11:53;;;;;;;;;0.00;0.00;;;;;13.58;59.16;100133.69;6247391;22;45228;-64
2023/04/01 09:14:36;;;;;;;;;0.00;0.00;;;;;13.53;59.29;100119.63;6245374;22;45398;-64
2023/04/01 09:17:29;;;;;;;;;0.00;0.00;;;;;13.96;59.20;100172.75;6244849;22;46191;-64
2023/04/01 09:20:16;;;;;;;;;1.00;0.00;;;;;13.98;59.10;100190.50;6247399;22;45267;-64
2023/04/01 09:23:00;;;;;;;;;2.00;0.00;;;;;14.02;59.42;100189.38;6247321;22;45510;-64
2023/04/01 09:25:47;;;;;;;;;0.00;0.00;;;;;14.06;59.41;100179.31;6247438;22;45331;-65
2023/04/01 09:28:17;;;;;;;;;1.00;1.00;;;;;13.83;58.81;100145.72;6247056;22;45457;-64
2023/04/01 09:30:42;;;;;;;;;1.00;0.00;;;;;14.11;58.88;100185.31;6245177;22;45292;-64
2023/04/01 09:33:36;;;;;;;;;1.25;0.00;;;;;14.14;58.52;100184.28;6245622;22;45533;-65
2023/04/01 09:36:17;;;;;;;;;0.00;0.00;;;;;13.89;58.74;100143.56;6245376;22;45572;-64
2023/04/01 09:39:19;;;;;;;;;0.75;0.75;;;;;14.20;58.91;100190.16;6247006;22;45413;-64
2023/04/01 09:41:59;;;;;;;;;1.00;1.00;;;;;14.22;58.68;100196.31;6245209;22;45394;-64
2023/04/01 09:44:57;;;;;;;;;3.00;1.00;;;;;14.09;58.19;100173.78;6247525;22;45343;-64
2023/04/01 09:48:02;;;;;;;;;0.00;0.00;;;;;14.21;58.33;100201.75;6249037;22;45291;-64
2023/04/01 09:50:36;;;;;;;;;1.00;0.00;;;;;14.23;58.56;100192.69;6245625;22;46231;-64
2023/04/01 09:53:20;;;;;;;;;0.00;0.00;;;;;14.25;57.71;100201.50;6277889;22;45484;-64
2023/04/01 09:56:21;;;;;;;;;0.00;0.00;;;;;13.94;57.70;100151.38;6277518;22;45308;-64
2023/04/01 09:58:49;;;;;;;;;1.25;0.00;;;;;14.29;57.76;100201.34;6277975;22;45389;-64
2023/04/01 10:01:42;;;;;;;;;0.00;0.00;;;;;14.10;57.30;100170.16;6278112;22;46047;-64
2023/04/01 10:04:45;;;;;;;;;2.00;0.00;;;;;14.36;56.96;100205.41;6278045;22;45315;-64
2023/04/01 10:07:22;;;;;;;;;1.50;0.00;;;;;14.32;56.97;100204.72;6277828;22;45407;-64
2023/04/01 10:10:20;;;;;;;;;1.25;0.00;;;;;14.08;56.86;100164.88;6278249;22;45529;-64
2023/04/01 10:13:04;;;;;;;;;0.00;0.00;;;;;14.43;56.25;100212.16;6277594;22;45581;-64
2023/04/01 10:15:29;;;;;;;;;0.00;0.00;;;;;14.43;55.74;100213.03;6277969;22;45228;-64
2023/04/01 10:18:18;;;;;;;;;0.50;0.50;;;;;14.45;55.08;100210.25;6277862;22;45245;-64
2023/04/01 10:21:19;;;;;;;;;0.00;0.00;;;;;14.18;55.42;100169.72;6278017;22;45525;-64
2023/04/01 10:23:53;;;;;;;;;1.25;0.00;;;;;14.38;55.12;100206.16;6277954;22;45414;-64
2023/04/01 10:26:40;;;;;;;;;0.00;0.00;;;;;14.50;54.67;100207.28;6277881;22;45474;-64
2023/04/01 10:29:35;;;;;;;;;0.00;0.00;;;;;14.52;54.58;100206.25;6277946;22;45280;-64
2023/04/01 10:32:32;;;;;;;;;3.00;0.00;;;;;14.43;54.37;100186.19;6249969;22;45926;-64
2023/04/01 10:35:28;;;;;;;;;0.00;0.00;;;;;14.61;53.58;100205.75;6277941;22;46264;-64
2023/04/01 10:38:26;;;;;;;;;0.00;0.00;;;;;14.62;53.07;100199.44;6277724;22;45183;-64
2023/04/01 10:41:11;;;;;;;;;0.25;0.00;;;;;14.64;53.80;100202.88;6278096;22;45391;-64
2023/04/01 10:43:49;;;;;;;;;1.00;0.25;;;;;14.67;53.32;100188.44;6277595;22;45471;-64
2023/04/01 10:46:49;;;;;;;;;0.50;0.00;;;;;14.54;52.84;100195.44;6277540;22;46293;-64
2023/04/01 10:49:58;;;;;;;;;0.00;0.00;;;;;14.45;53.14;100154.72;6277540;22;45443;-64
2023/04/01 10:52:57;;;;;;;;;0.75;0.00;;;;;14.75;53.06;100196.91;6277688;22;45318;-64
2023/04/01 10:55:25;;;;;;;;;0.00;0.00;;;;;14.79;52.93;100197.59;6278056;22;45245;-64
2023/04/01 10:58:09;;;;;;;;;0.00;0.00;;;;;14.84;52.91;100206.25;6277323;22;45375;-64
2023/04/01 11:01:08;;;;;;;;;0.00;0.00;;;;;14.86;52.37;100195.41;6250114;22;45462;-64
2023/04/01 11:03:40;;;;;;;;;0.00;0.00;;;;;14.87;52.21;100210.56;6277855;22;45331;-64
2023/04/01 11:06:34;;;;;;;;;0.00;0.00;;;;;14.49;52.16;100131.25;6250084;22;45430;-64
2023/04/01 11:09:08;;;;;;;;;0.00;0.00;;;;;14.91;51.60;100183.41;6277736;22;45434;-64
2023/04/01 11:12:01;;;;;;;;;0.00;0.00;;;;;14.96;51.71;100183.16;6277705;22;45243;-64
2023/04/01 11:14:48;;;;;;;;;1.50;0.00;;;;;15.02;51.42;100177.44;6278000;22;45257;-64
2023/04/01 11:17:26;;;;;;;;;0.00;0.00;;;;;15.06;51.47;100178.09;6277719;22;45403;-64
2023/04/01 11:20:35;;;;;;;;;0.00;0.00;;;;;15.13;51.56;100166.88;6277611;22;45550;-64
2023/04/01 11:23:19;;;;;;;;;1.00;0.00;;;;;15.20;51.39;100180.81;6247200;22;45439;-64
2023/04/01 11:26:04;;;;;;;;;0.00;0.00;;;;;14.96;51.00;100132.09;6278087;22;45269;-64
2023/04/01 11:28:33;;;;;;;;;0.75;0.00;;;;;15.26;50.73;100172.38;6277608;22;45245;-64
2023/04/01 11:31:19;;;;;;;;;0.00;0.00;;;;;14.99;50.88;100138.16;6277718;22;46508;-65
2023/04/01 11:34:17;;;;;;;;;0.00;0.00;;;;;15.31;50.69;100177.47;6249586;22;45586;-64
2023/04/01 11:36:59;;;;;;;;;3.00;0.75;;;;;15.08;50.17;100142.09;6262291;22;45386;-64
2023/04/01 11:39:58;;;;;;;;;0.00;0.00;;;;;15.20;50.71;100140.47;6277669;22;45479;-64
2023/04/01 11:42:38;;;;;;;;;0.00;0.00;;;;;15.40;50.81;100176.03;6277441;22;46876;-64
2023/04/01 11:45:33;;;;;;;;;0.00;0.00;;;;;15.19;50.91;100149.53;6277729;22;45208;-64
2023/04/01 11:48:42;;;;;;;;;2.00;1.00;;;;;15.35;50.75;100171.81;6249545;22;45423;-64
2023/04/01 11:51:43;;;;;;;;;0.00;0.00;;;;;15.26;51.10;100156.25;6277227;22;45981;-64
2023/04/01 11:54:24;;;;;;;;;0.00;0.00;;;;;15.46;51.02;100184.59;6277478;22;45625;-67
2023/04/01 11:56:56;;;;;;;;;0.00;0.00;;;;;15.46;51.06;100189.97;6277465;22;45519;-64
2023/04/01 11:59:59;;;;;;;;;2.50;0.25;;;;;15.44;51.14;100189.22;6277663;22;45507;-64
2023/04/01 12:02:50;;;;;;;;;2.50;0.00;;;;;15.05;51.36;100128.88;6277127;22;46056;-65
2023/04/01 12:05:51;;;;;;;;;2.25;0.75;;;;;15.47;50.68;100193.53;6277401;22;45370;-64
2023/04/01 12:08:30;;;;;;;;;1.50;0.00;;;;;15.16;49.97;100142.50;6276589;22;45331;-64